Terminal Aerodrome Forecast
Issued by NWS Charleston, WV

Home | Current Version | Previous Version | Text Only | Print | Product List | Glossary On
Versions: 1 2 3 4 5 6 7 8 9 10 11 12 13 14 15 16 17 18 19 20 21 22 23 24 25 26
000
FTUS41 KRLX 310545
TAFPKB
TAF
KPKB 310545Z 3106/0106 00000KT 5SM BR SCT250
     FM310800 00000KT 2SM BR SCT001
     FM310900 00000KT 1/2SM FG VV001
     FM311200 00000KT 2SM BR BKN002
     FM311300 00000KT 5SM HZ SCT250
     FM311400 03003KT P6SM SCT250=

USA.gov is the U.S. government's official web portal to all federal, state and local government web resources and services.